createdAt,value
2018-12-23T00:00:48.673Z,9.70
2018-12-23T00:03:17.061Z,9.50
2018-12-23T00:05:45.595Z,9.30
2018-12-23T00:08:14.108Z,9.70
2018-12-23T00:10:42.563Z,8.90
2018-12-23T00:13:11.093Z,9.60
2018-12-23T00:15:39.880Z,8.90
2018-12-23T00:18:08.321Z,9.80
2018-12-23T00:20:36.949Z,9.40
2018-12-23T00:23:05.505Z,9.40
2018-12-23T00:25:33.865Z,8.80
2018-12-23T00:28:02.354Z,9.70
2018-12-23T00:30:30.887Z,9.50
2018-12-23T00:33:00.272Z,9.50
2018-12-23T00:35:28.684Z,9.20
2018-12-23T00:37:57.062Z,9.60
2018-12-23T00:40:25.585Z,9.60
2018-12-23T00:42:53.973Z,9.70
2018-12-23T00:45:22.491Z,9.70
2018-12-23T00:47:51.374Z,9.80
2018-12-23T00:50:19.740Z,9.60
2018-12-23T00:52:48.066Z,9.50
2018-12-23T00:55:29.605Z,8.70
2018-12-23T00:57:57.996Z,9.80
2018-12-23T01:00:26.329Z,9.50
2018-12-23T01:02:54.783Z,9.40
2018-12-23T01:05:28.774Z,9.60
2018-12-23T01:07:53.462Z,9.80
2018-12-23T01:10:21.857Z,9.30
2018-12-23T01:12:50.370Z,9.10
2018-12-23T01:15:18.861Z,9.00
2018-12-23T01:17:47.267Z,9.20
2018-12-23T01:20:16.369Z,9.20
2018-12-23T01:22:44.825Z,9.10
2018-12-23T01:25:13.167Z,9.20
2018-12-23T01:27:41.481Z,9.80
2018-12-23T01:30:09.961Z,9.10
2018-12-23T01:32:38.459Z,8.50
2018-12-23T01:35:06.808Z,9.20
2018-12-23T01:37:35.154Z,8.30
2018-12-23T01:40:03.758Z,8.50
2018-12-23T01:42:32.080Z,8.80
2018-12-23T01:45:00.481Z,8.70
2018-12-23T01:47:28.806Z,9.00
2018-12-23T01:49:57.178Z,9.60
2018-12-23T01:52:25.713Z,9.00
2018-12-23T01:54:54.156Z,9.30
2018-12-23T01:57:22.471Z,8.70
2018-12-23T01:59:51.025Z,9.00
2018-12-23T02:02:19.536Z,8.60
2018-12-23T02:04:49.023Z,8.50
2018-12-23T02:09:24.061Z,8.70
2018-12-23T02:11:53.301Z,8.80
2018-12-23T02:14:21.923Z,9.20
2018-12-23T02:16:50.475Z,8.80
2018-12-23T02:19:18.793Z,8.80
2018-12-23T02:21:47.232Z,8.90
2018-12-23T02:24:15.499Z,9.10
2018-12-23T02:26:43.941Z,8.80
2018-12-23T02:29:12.275Z,8.20
2018-12-23T02:31:40.653Z,8.90
2018-12-23T02:34:09.271Z,8.70
2018-12-23T02:36:37.642Z,9.10
2018-12-23T02:39:08.442Z,8.90
2018-12-23T02:41:37.165Z,9.10
2018-12-23T02:44:05.772Z,8.40
2018-12-23T02:46:34.121Z,8.50
2018-12-23T02:49:02.671Z,9.00
2018-12-23T02:51:32.253Z,8.80
2018-12-23T02:54:00.592Z,8.70
2018-12-23T02:56:29.120Z,8.90
2018-12-23T02:58:57.654Z,9.10
2018-12-23T03:01:26.147Z,9.10
2018-12-23T03:03:55.891Z,8.90
2018-12-23T03:06:24.242Z,8.80
2018-12-23T03:08:52.570Z,8.90
2018-12-23T03:11:21.020Z,9.00
2018-12-23T03:13:50.373Z,9.10
2018-12-23T03:16:18.784Z,8.90
2018-12-23T03:18:47.323Z,8.80
2018-12-23T03:21:15.818Z,8.60
2018-12-23T03:23:44.278Z,8.70
2018-12-23T03:26:12.617Z,8.50
2018-12-23T03:28:41.073Z,8.70
2018-12-23T03:31:09.615Z,9.00
2018-12-23T03:33:38.316Z,9.10
2018-12-23T03:36:14.764Z,8.60
2018-12-23T03:38:37.003Z,8.40
2018-12-23T03:41:05.388Z,8.60
2018-12-23T03:43:33.700Z,8.60
2018-12-23T03:46:02.146Z,8.50
2018-12-23T03:48:30.643Z,8.80
2018-12-23T03:50:59.202Z,8.60
2018-12-23T03:53:27.489Z,8.80
2018-12-23T03:55:55.802Z,8.50
2018-12-23T03:58:24.303Z,8.60
2018-12-23T04:00:53.520Z,8.60
2018-12-23T04:03:21.825Z,8.70
2018-12-23T04:05:52.078Z,8.80
2018-12-23T04:08:20.589Z,8.70
2018-12-23T04:10:49.149Z,8.70
2018-12-23T04:16:53.379Z,8.90
2018-12-23T04:19:21.869Z,8.60
2018-12-23T04:21:50.750Z,8.70
2018-12-23T04:24:19.101Z,8.20
2018-12-23T04:26:47.536Z,8.70
2018-12-23T04:29:15.877Z,8.80
2018-12-23T04:31:44.107Z,8.80
2018-12-23T04:34:12.629Z,8.80
2018-12-23T04:36:42.174Z,8.60
2018-12-23T04:39:10.407Z,9.00
2018-12-23T04:41:38.904Z,8.50
2018-12-23T04:44:07.171Z,8.00
2018-12-23T04:46:35.601Z,8.80
2018-12-23T04:49:04.129Z,8.90
2018-12-23T04:55:36.821Z,8.80
2018-12-23T04:58:05.076Z,8.80
2018-12-23T05:00:33.411Z,8.80
2018-12-23T05:03:02.019Z,8.70
2018-12-23T05:05:30.422Z,8.40
2018-12-23T05:07:58.887Z,8.80
2018-12-23T05:10:27.419Z,8.60
2018-12-23T05:12:55.745Z,8.70
2018-12-23T05:15:23.981Z,8.90
2018-12-23T05:17:52.401Z,8.80
2018-12-23T05:20:20.790Z,9.00
2018-12-23T05:22:50.065Z,9.00
2018-12-23T05:25:18.448Z,8.80
2018-12-23T05:27:46.926Z,9.10
2018-12-23T05:30:15.575Z,8.80
2018-12-23T05:32:43.857Z,8.70
2018-12-23T05:35:12.307Z,8.80
2018-12-23T05:37:40.773Z,8.90
2018-12-23T05:40:09.367Z,8.80
2018-12-23T05:42:37.677Z,8.80
2018-12-23T05:45:06.365Z,8.70
2018-12-23T05:47:34.730Z,8.60
2018-12-23T05:50:03.021Z,8.90
2018-12-23T05:52:31.504Z,9.10
2018-12-23T05:54:59.734Z,9.00
2018-12-23T05:57:28.021Z,9.10
2018-12-23T05:59:56.356Z,8.90
2018-12-23T06:02:24.607Z,9.00
2018-12-23T06:04:53.089Z,8.60
2018-12-23T06:07:21.393Z,8.70
2018-12-23T06:09:49.968Z,8.90
2018-12-23T06:12:18.241Z,8.70
2018-12-23T06:14:46.627Z,8.70
2018-12-23T06:17:15.158Z,9.50
2018-12-23T06:19:43.551Z,8.90
2018-12-23T06:22:11.859Z,8.90
2018-12-23T06:24:40.248Z,8.80
2018-12-23T06:27:08.691Z,9.20
2018-12-23T06:29:37.149Z,9.30
2018-12-23T06:32:05.448Z,9.20
2018-12-23T06:34:33.730Z,8.60
2018-12-23T06:37:09.736Z,9.20
2018-12-23T06:39:32.837Z,9.30
2018-12-23T06:42:01.978Z,9.00
2018-12-23T06:44:30.412Z,9.20
2018-12-23T06:46:58.913Z,9.30
2018-12-23T06:49:27.470Z,8.40
2018-12-23T06:51:55.909Z,9.20
2018-12-23T06:54:24.406Z,9.10
2018-12-23T06:56:52.760Z,8.70
2018-12-23T06:59:21.112Z,9.20
2018-12-23T07:01:50.070Z,9.10
2018-12-23T07:04:18.545Z,9.10
2018-12-23T07:06:47.350Z,9.20
2018-12-23T07:09:16.200Z,9.30
2018-12-23T07:11:45.489Z,9.10
2018-12-23T07:14:14.089Z,9.10
2018-12-23T07:16:42.571Z,9.20
2018-12-23T07:19:10.994Z,9.20
2018-12-23T07:21:39.647Z,9.10
2018-12-23T07:24:08.750Z,9.20
2018-12-23T07:26:37.034Z,9.00
2018-12-23T07:29:05.309Z,9.00
2018-12-23T07:31:33.682Z,9.00
2018-12-23T07:34:02.521Z,9.40
2018-12-23T07:36:31.248Z,9.20
2018-12-23T07:38:59.683Z,9.40
2018-12-23T07:41:27.898Z,9.80
2018-12-23T07:43:56.158Z,9.00
2018-12-23T07:46:24.541Z,9.40
2018-12-23T07:48:52.915Z,9.50
2018-12-23T07:51:21.301Z,9.40
2018-12-23T07:53:50.542Z,8.90
2018-12-23T07:56:18.911Z,9.10
2018-12-23T07:58:47.341Z,9.40
2018-12-23T08:01:15.636Z,9.60
2018-12-23T08:03:44.101Z,9.60
2018-12-23T08:10:20.176Z,9.80
2018-12-23T08:12:49.030Z,9.20
2018-12-23T08:15:17.457Z,9.90
2018-12-23T08:17:46.072Z,10.10
2018-12-23T08:20:14.358Z,10.00
2018-12-23T08:22:42.650Z,10.20
2018-12-23T08:25:11.169Z,10.10
2018-12-23T08:27:39.435Z,10.00
2018-12-23T08:30:07.737Z,9.80
2018-12-23T08:32:36.125Z,10.10
2018-12-23T08:35:04.758Z,10.10
2018-12-23T08:37:33.046Z,10.20
2018-12-23T08:40:01.368Z,9.40
2018-12-23T08:42:29.862Z,10.00
2018-12-23T08:45:05.996Z,10.00
2018-12-23T08:47:34.440Z,10.20
2018-12-23T08:50:03.346Z,10.10
2018-12-23T08:52:31.678Z,10.40
2018-12-23T08:55:00.162Z,10.00
2018-12-23T08:57:28.586Z,10.00
2018-12-23T08:59:57.093Z,10.10
2018-12-23T09:02:25.528Z,9.70
2018-12-23T09:04:53.937Z,10.10
2018-12-23T09:07:23.032Z,10.40
2018-12-23T09:09:52.121Z,10.20
2018-12-23T09:12:21.108Z,10.40
2018-12-23T09:14:51.389Z,9.90
2018-12-23T09:17:19.733Z,10.60
2018-12-23T09:19:48.788Z,10.90
2018-12-23T09:22:17.263Z,10.80
2018-12-23T09:24:45.831Z,10.50
2018-12-23T09:27:14.386Z,11.10
2018-12-23T09:29:42.868Z,11.30
2018-12-23T09:32:11.590Z,10.80
2018-12-23T09:34:39.984Z,10.80
2018-12-23T09:41:24.750Z,10.80
2018-12-23T09:43:53.177Z,10.90
2018-12-23T09:46:22.375Z,10.50
2018-12-23T09:48:53.951Z,10.70
2018-12-23T09:51:22.237Z,11.00
2018-12-23T09:53:51.701Z,10.90
2018-12-23T09:56:20.335Z,10.80
2018-12-23T09:58:49.960Z,11.00
2018-12-23T10:01:18.334Z,10.80
2018-12-23T10:03:47.026Z,10.90
2018-12-23T10:06:15.552Z,10.00
2018-12-23T10:08:44.046Z,10.20
2018-12-23T10:11:12.428Z,10.30
2018-12-23T10:13:40.930Z,10.60
2018-12-23T10:16:09.291Z,10.50
2018-12-23T10:18:41.794Z,10.80
2018-12-23T10:21:10.312Z,10.80
2018-12-23T10:23:38.657Z,10.60
2018-12-23T10:26:06.928Z,10.80
2018-12-23T10:28:35.315Z,10.30
2018-12-23T10:31:03.668Z,10.80
2018-12-23T10:33:32.610Z,11.10
2018-12-23T10:36:00.995Z,10.80
2018-12-23T10:38:29.383Z,11.40
2018-12-23T10:40:57.811Z,11.40
2018-12-23T10:43:26.187Z,10.90
2018-12-23T10:45:54.758Z,10.70
2018-12-23T10:48:24.494Z,10.80
2018-12-23T10:50:52.853Z,11.00
2018-12-23T10:53:21.162Z,10.80
2018-12-23T10:55:50.894Z,10.40
2018-12-23T10:58:19.564Z,10.70
2018-12-23T11:00:47.943Z,10.80
2018-12-23T11:07:12.080Z,10.10
2018-12-23T11:09:40.862Z,10.30
2018-12-23T11:12:10.020Z,10.60
2018-12-23T11:14:40.290Z,10.50
2018-12-23T11:17:08.691Z,10.50
2018-12-23T11:19:37.174Z,10.70
2018-12-23T11:22:06.376Z,10.50
2018-12-23T11:24:36.217Z,10.60
2018-12-23T11:27:05.024Z,10.30
2018-12-23T11:29:35.615Z,10.80
2018-12-23T11:32:05.792Z,10.80
2018-12-23T11:34:37.569Z,10.90
2018-12-23T11:37:10.082Z,10.60
2018-12-23T11:39:39.939Z,10.40
2018-12-23T11:42:10.141Z,11.10
2018-12-23T11:48:29.821Z,10.60
2018-12-23T11:54:27.676Z,10.90
2018-12-23T12:00:20.716Z,10.90
2018-12-23T12:03:01.559Z,11.00
2018-12-23T12:08:43.756Z,11.30
2018-12-23T12:19:50.279Z,11.20
2018-12-23T12:25:54.005Z,11.50
2018-12-23T12:28:37.331Z,11.60
2018-12-23T12:31:24.721Z,11.70
2018-12-23T12:34:29.955Z,11.90
2018-12-23T12:36:59.040Z,11.60
2018-12-23T12:40:06.426Z,11.40
2018-12-23T12:42:47.487Z,11.50
2018-12-23T12:45:35.438Z,11.30
2018-12-23T12:48:16.287Z,11.40
2018-12-23T12:51:04.178Z,11.70
2018-12-23T12:53:48.148Z,11.60
2018-12-23T12:56:57.446Z,11.20
2018-12-23T12:59:44.445Z,11.60
2018-12-23T13:02:25.163Z,11.60
2018-12-23T13:05:13.329Z,12.00
2018-12-23T13:07:54.360Z,11.90
2018-12-23T13:10:42.274Z,11.50
2018-12-23T13:13:23.899Z,11.80
2018-12-23T13:16:11.753Z,12.10
2018-12-23T13:18:59.110Z,11.90
2018-12-23T13:21:48.452Z,12.00
2018-12-23T13:24:28.969Z,12.20
2018-12-23T13:27:16.853Z,12.30
2018-12-23T13:30:01.423Z,11.90
2018-12-23T13:32:45.043Z,11.90
2018-12-23T13:35:35.998Z,11.90
2018-12-23T13:38:36.167Z,12.00
2018-12-23T13:41:29.934Z,12.00
2018-12-23T13:44:56.442Z,11.90
2018-12-23T13:47:59.290Z,12.00
2018-12-23T13:51:25.877Z,11.70
2018-12-23T13:54:14.055Z,12.20
2018-12-23T13:57:28.696Z,11.40
2018-12-23T14:00:29.755Z,11.70
2018-12-23T14:03:35.995Z,11.40
2018-12-23T14:07:02.757Z,11.80
2018-12-23T14:10:02.796Z,12.00
2018-12-23T14:12:44.030Z,11.80
2018-12-23T14:15:31.912Z,12.10
2018-12-23T14:18:12.686Z,11.80
2018-12-23T14:21:00.753Z,12.00
2018-12-23T14:23:43.603Z,11.60
2018-12-23T14:26:31.670Z,12.10
2018-12-23T14:29:16.107Z,11.90
2018-12-23T14:32:03.898Z,11.80
2018-12-23T14:34:45.988Z,11.70
2018-12-23T14:37:39.949Z,12.00
2018-12-23T14:40:21.285Z,12.30
2018-12-23T14:43:15.411Z,11.90
2018-12-23T14:45:55.972Z,11.90
2018-12-23T14:52:24.343Z,11.80
2018-12-23T14:55:12.309Z,12.40
2018-12-23T15:01:15.775Z,12.10
2018-12-23T15:04:09.639Z,12.10
2018-12-23T15:06:50.979Z,12.10
2018-12-23T15:09:39.187Z,12.10
2018-12-23T15:12:20.610Z,11.80
2018-12-23T15:15:06.225Z,12.10
2018-12-23T15:17:54.234Z,11.30
2018-12-23T15:20:36.179Z,11.80
2018-12-23T15:23:24.181Z,11.50
2018-12-23T15:32:18.478Z,11.70
2018-12-23T15:35:00.443Z,11.90
2018-12-23T15:37:48.463Z,11.60
2018-12-23T15:41:00.832Z,11.90
2018-12-23T15:43:42.031Z,11.60
2018-12-23T15:46:30.102Z,11.50
2018-12-23T15:49:15.037Z,11.80
2018-12-23T15:52:00.180Z,11.90
2018-12-23T16:03:45.432Z,11.80
2018-12-23T16:06:33.253Z,11.30
2018-12-23T16:09:14.216Z,12.10
2018-12-23T16:11:55.368Z,11.80
2018-12-23T16:14:38.894Z,11.90
2018-12-23T16:17:26.795Z,12.00
2018-12-23T16:20:09.912Z,11.80
2018-12-23T16:23:38.409Z,11.60
2018-12-23T16:26:19.897Z,11.90
2018-12-23T16:29:08.173Z,11.40
2018-12-23T16:31:49.811Z,11.80
2018-12-23T16:34:37.741Z,11.80
2018-12-23T16:37:18.911Z,12.00
2018-12-23T16:40:09.720Z,11.80
2018-12-23T16:42:50.804Z,12.00
2018-12-23T16:45:38.918Z,11.60
2018-12-23T16:48:21.002Z,12.00
2018-12-23T16:51:08.954Z,11.70
2018-12-23T16:53:49.400Z,11.50
2018-12-23T16:56:37.268Z,11.80
2018-12-23T16:59:18.258Z,11.60
2018-12-23T17:02:07.876Z,11.70
2018-12-23T17:04:48.736Z,11.80
2018-12-23T17:07:36.718Z,11.90
2018-12-23T17:10:17.819Z,11.60
2018-12-23T17:12:59.167Z,11.90
2018-12-23T17:15:47.062Z,11.90
2018-12-23T17:18:28.305Z,12.00
2018-12-23T17:21:16.345Z,11.80
2018-12-23T17:23:57.335Z,11.80
2018-12-23T17:26:45.244Z,11.80
2018-12-23T17:29:25.643Z,11.50
2018-12-23T17:32:13.519Z,11.90
2018-12-23T17:34:54.114Z,12.10
2018-12-23T17:37:41.961Z,11.40
2018-12-23T17:40:23.033Z,11.30
2018-12-23T17:43:10.975Z,11.30
2018-12-23T17:45:51.581Z,11.40
2018-12-23T17:48:39.593Z,11.60
2018-12-23T17:51:20.395Z,11.40
2018-12-23T17:54:08.263Z,11.40
2018-12-23T17:56:48.721Z,10.80
2018-12-23T17:59:48.792Z,10.90
2018-12-23T18:02:19.452Z,11.10
2018-12-23T18:05:07.358Z,11.00
2018-12-23T18:07:47.711Z,10.80
2018-12-23T18:10:35.635Z,10.80
2018-12-23T18:13:16.418Z,10.80
2018-12-23T18:16:04.416Z,10.90
2018-12-23T18:18:45.397Z,10.70
2018-12-23T18:21:33.295Z,10.60
2018-12-23T18:24:14.631Z,11.00
2018-12-23T18:27:02.406Z,10.40
2018-12-23T18:29:43.101Z,10.60
2018-12-23T18:35:39.780Z,10.30
2018-12-23T18:38:27.704Z,10.30
2018-12-23T18:41:15.775Z,9.70
2018-12-23T18:44:03.666Z,10.50
2018-12-23T18:46:51.763Z,10.20
2018-12-23T18:49:32.384Z,10.10
2018-12-23T18:52:20.529Z,9.90
2018-12-23T18:55:02.437Z,10.10
2018-12-23T18:57:50.433Z,10.20
2018-12-23T19:00:31.687Z,10.20
2018-12-23T19:03:18.073Z,9.70
2018-12-23T19:06:08.094Z,9.80
2018-12-23T19:09:01.213Z,9.50
2018-12-23T19:12:15.049Z,9.80
2018-12-23T19:15:15.672Z,9.60
2018-12-23T19:18:16.430Z,9.50
2018-12-23T19:21:39.313Z,9.80
2018-12-23T19:24:39.907Z,9.40
2018-12-23T19:28:13.748Z,9.40
2018-12-23T19:31:16.638Z,9.50
2018-12-23T19:34:43.227Z,9.10
2018-12-23T19:40:39.316Z,8.90
2018-12-23T19:44:05.753Z,8.80
2018-12-23T19:47:06.501Z,8.70
2018-12-23T19:50:34.101Z,8.30
2018-12-23T19:53:34.954Z,8.90
2018-12-23T19:57:02.647Z,9.00
2018-12-23T20:00:06.643Z,9.10
2018-12-23T20:03:07.069Z,8.80
2018-12-23T20:06:33.561Z,8.90
2018-12-23T20:09:21.097Z,8.80
2018-12-23T20:12:47.609Z,8.70
2018-12-23T20:15:50.949Z,8.70
2018-12-23T20:19:07.971Z,9.00
2018-12-23T20:22:09.088Z,8.90
2018-12-23T20:25:35.700Z,9.30
2018-12-23T20:28:35.824Z,8.80
2018-12-23T20:31:50.432Z,9.20
2018-12-23T20:34:52.164Z,8.60
2018-12-23T20:38:18.882Z,8.70
2018-12-23T20:41:26.220Z,8.80
2018-12-23T20:44:14.968Z,9.00
2018-12-23T20:47:41.494Z,8.80
2018-12-23T20:50:42.051Z,8.80
2018-12-23T20:54:08.625Z,8.80
2018-12-23T20:57:08.514Z,9.20
2018-12-23T21:00:35.131Z,8.90
2018-12-23T21:03:35.665Z,9.10
2018-12-23T21:07:02.228Z,8.90
2018-12-23T21:09:53.154Z,8.80
2018-12-23T21:13:19.595Z,9.10
2018-12-23T21:16:22.512Z,9.00
2018-12-23T21:19:49.226Z,8.80
2018-12-23T21:22:42.463Z,8.40
2018-12-23T21:26:00.491Z,8.50
2018-12-23T21:29:14.160Z,8.70
2018-12-23T21:32:29.717Z,9.10
2018-12-23T21:35:29.785Z,8.00
2018-12-23T21:38:59.522Z,8.20
2018-12-23T21:42:05.757Z,8.20
2018-12-23T21:45:06.657Z,8.30
2018-12-23T21:48:33.371Z,8.20
2018-12-23T21:51:33.398Z,8.50
2018-12-23T21:54:59.920Z,8.30
2018-12-23T21:57:52.067Z,8.10
2018-12-23T22:01:18.693Z,8.30
2018-12-23T22:04:17.357Z,8.60
2018-12-23T22:07:33.959Z,8.30
2018-12-23T22:10:18.905Z,8.40
2018-12-23T22:13:26.197Z,8.50
2018-12-23T22:16:07.034Z,8.30
2018-12-23T22:18:50.292Z,8.70
2018-12-23T22:21:41.623Z,8.50
2018-12-23T22:24:23.190Z,8.60
2018-12-23T22:30:01.166Z,8.20
2018-12-23T22:32:49.137Z,8.20
2018-12-23T22:35:29.977Z,8.10
2018-12-23T22:38:18.161Z,7.60
2018-12-23T22:41:00.993Z,8.00
2018-12-23T22:43:41.713Z,7.20
2018-12-23T22:46:29.828Z,8.00
2018-12-23T22:49:08.999Z,8.00
2018-12-23T22:51:57.043Z,8.00
2018-12-23T22:54:38.143Z,7.70
2018-12-23T22:57:26.177Z,7.80
2018-12-23T23:00:07.351Z,7.90
2018-12-23T23:02:55.307Z,7.70
2018-12-23T23:05:36.043Z,7.70
2018-12-23T23:08:23.946Z,7.90
2018-12-23T23:11:05.214Z,7.70
2018-12-23T23:13:53.016Z,7.70
2018-12-23T23:16:34.181Z,7.80
2018-12-23T23:19:22.148Z,7.50
2018-12-23T23:22:03.347Z,7.90
2018-12-23T23:24:51.382Z,7.60
2018-12-23T23:27:32.262Z,7.30
2018-12-23T23:30:20.218Z,8.10
2018-12-23T23:33:01.252Z,8.10
2018-12-23T23:35:49.160Z,8.00
2018-12-23T23:38:30.302Z,8.20
2018-12-23T23:41:18.182Z,8.10
2018-12-23T23:43:59.360Z,8.20
2018-12-23T23:46:47.345Z,8.10
2018-12-23T23:49:28.514Z,8.10
2018-12-23T23:52:16.437Z,8.00
2018-12-23T23:54:57.138Z,8.10
2018-12-23T23:57:45.158Z,8.00
